Terminal Aerodrome Forecast
Issued by NWS

Home | Current Version | Previous Version | Text Only | Print | Product List | Glossary On
Versions: 1 2 3 4 5 6 7 8 9 10 11 12 13 14 15 16 17
000
FTUS44 KTSA 051254 AAA
TAFBVO
TAF AMD
KBVO 051254Z 0513/0612 10003KT 3SM BR VCTS BKN100CB BKN250
      TEMPO 0513/0515 35020G35KT 2SM TSRA BKN030CB
     FM051600 17004KT P6SM VCSH OVC250
     FM052100 18006KT P6SM VCSH BKN250
     FM060300 05003KT P6SM VCSH BKN250 PROB30 0603/0609 3SM TSRA
      BKN050CB=

USA.gov is the U.S. government's official web portal to all federal, state and local government web resources and services.